sensor_id;sensor_type;location;lat;lon;timestamp;pressure;altitude;pressure_sealevel;temperature;humidity
64230;BME280;50547;49.498;0.092;2023-01-29T00:01:31;1027.07;;;8.33;64.12
64230;BME280;50547;49.498;0.092;2023-01-29T00:04:00;1027.05;;;8.14;64.41
64230;BME280;50547;49.498;0.092;2023-01-29T00:06:29;1027.00;;;8.06;64.62
64230;BME280;50547;49.498;0.092;2023-01-29T00:08:59;1027.00;;;8.01;64.74
64230;BME280;50547;49.498;0.092;2023-01-29T00:11:28;1027.00;;;8.15;64.30
64230;BME280;50547;49.498;0.092;2023-01-29T00:13:57;1027.01;;;8.21;63.76
64230;BME280;50547;49.498;0.092;2023-01-29T00:16:26;1027.03;;;8.38;63.30
64230;BME280;50547;49.498;0.092;2023-01-29T00:18:56;1027.01;;;8.43;62.99
64230;BME280;50547;49.498;0.092;2023-01-29T00:21:25;1027.00;;;8.53;62.50
64230;BME280;50547;49.498;0.092;2023-01-29T00:23:54;1027.09;;;8.56;61.64
64230;BME280;50547;49.498;0.092;2023-01-29T00:26:24;1027.19;;;8.48;61.90
64230;BME280;50547;49.498;0.092;2023-01-29T00:28:53;1027.19;;;8.45;62.30
64230;BME280;50547;49.498;0.092;2023-01-29T00:31:24;1027.23;;;8.46;62.62
64230;BME280;50547;49.498;0.092;2023-01-29T00:33:53;1027.17;;;8.54;62.35
64230;BME280;50547;49.498;0.092;2023-01-29T00:36:23;1027.19;;;8.69;62.12
64230;BME280;50547;49.498;0.092;2023-01-29T00:38:54;1027.19;;;8.72;62.12
64230;BME280;50547;49.498;0.092;2023-01-29T00:41:26;1027.15;;;8.77;62.13
64230;BME280;50547;49.498;0.092;2023-01-29T00:43:55;1027.19;;;8.67;62.10
64230;BME280;50547;49.498;0.092;2023-01-29T00:46:25;1027.21;;;8.70;61.11
64230;BME280;50547;49.498;0.092;2023-01-29T00:48:54;1027.21;;;8.60;61.48
64230;BME280;50547;49.498;0.092;2023-01-29T00:51:23;1027.17;;;8.56;62.07
64230;BME280;50547;49.498;0.092;2023-01-29T00:53:52;1027.19;;;8.60;61.59
64230;BME280;50547;49.498;0.092;2023-01-29T00:56:22;1027.27;;;8.37;61.74
64230;BME280;50547;49.498;0.092;2023-01-29T00:58:51;1027.25;;;8.26;62.34
64230;BME280;50547;49.498;0.092;2023-01-29T01:01:21;1027.19;;;8.32;62.24
64230;BME280;50547;49.498;0.092;2023-01-29T01:03:50;1027.19;;;8.42;62.13
64230;BME280;50547;49.498;0.092;2023-01-29T01:06:19;1027.13;;;8.37;61.79
64230;BME280;50547;49.498;0.092;2023-01-29T01:08:49;1027.11;;;8.26;62.42
64230;BME280;50547;49.498;0.092;2023-01-29T01:11:18;1027.07;;;8.10;62.11
64230;BME280;50547;49.498;0.092;2023-01-29T01:13:47;1027.07;;;8.13;62.16
64230;BME280;50547;49.498;0.092;2023-01-29T01:16:17;1026.90;;;8.34;61.58
64230;BME280;50547;49.498;0.092;2023-01-29T01:18:46;1026.86;;;8.41;61.13
64230;BME280;50547;49.498;0.092;2023-01-29T01:21:15;1026.78;;;8.56;61.29
64230;BME280;50547;49.498;0.092;2023-01-29T01:23:45;1026.80;;;8.72;61.25
64230;BME280;50547;49.498;0.092;2023-01-29T01:26:14;1026.76;;;8.51;61.34
64230;BME280;50547;49.498;0.092;2023-01-29T01:28:43;1026.72;;;8.39;61.91
64230;BME280;50547;49.498;0.092;2023-01-29T01:31:13;1026.68;;;8.21;63.25
64230;BME280;50547;49.498;0.092;2023-01-29T01:33:42;1026.70;;;8.16;63.47
64230;BME280;50547;49.498;0.092;2023-01-29T01:36:11;1026.68;;;8.32;62.85
64230;BME280;50547;49.498;0.092;2023-01-29T01:38:40;1026.70;;;8.34;62.29
64230;BME280;50547;49.498;0.092;2023-01-29T01:41:10;1026.70;;;8.18;62.15
64230;BME280;50547;49.498;0.092;2023-01-29T01:43:50;1026.72;;;7.99;62.48
64230;BME280;50547;49.498;0.092;2023-01-29T01:46:20;1026.62;;;8.01;62.70
64230;BME280;50547;49.498;0.092;2023-01-29T01:48:52;1026.60;;;8.00;62.95
64230;BME280;50547;49.498;0.092;2023-01-29T01:51:25;1026.55;;;8.00;63.06
64230;BME280;50547;49.498;0.092;2023-01-29T01:53:59;1026.57;;;8.05;62.78
64230;BME280;50547;49.498;0.092;2023-01-29T01:56:32;1026.58;;;8.10;62.65
64230;BME280;50547;49.498;0.092;2023-01-29T01:59:05;1026.58;;;8.18;62.64
64230;BME280;50547;49.498;0.092;2023-01-29T02:01:35;1026.64;;;8.22;62.35
64230;BME280;50547;49.498;0.092;2023-01-29T02:04:06;1026.68;;;8.31;61.77
64230;BME280;50547;49.498;0.092;2023-01-29T02:06:39;1026.66;;;8.35;61.90
64230;BME280;50547;49.498;0.092;2023-01-29T02:09:12;1026.66;;;8.53;61.59
64230;BME280;50547;49.498;0.092;2023-01-29T02:11:43;1026.66;;;8.59;61.49
64230;BME280;50547;49.498;0.092;2023-01-29T02:14:12;1026.66;;;8.37;61.17
64230;BME280;50547;49.498;0.092;2023-01-29T02:16:42;1026.64;;;8.20;61.98
64230;BME280;50547;49.498;0.092;2023-01-29T02:19:15;1026.62;;;8.31;61.72
64230;BME280;50547;49.498;0.092;2023-01-29T02:22:05;1026.64;;;8.33;60.89
64230;BME280;50547;49.498;0.092;2023-01-29T02:26:04;1026.58;;;8.11;61.60
64230;BME280;50547;49.498;0.092;2023-01-29T02:28:40;1026.57;;;8.03;61.98
64230;BME280;50547;49.498;0.092;2023-01-29T02:31:22;1026.57;;;7.91;62.77
64230;BME280;50547;49.498;0.092;2023-01-29T02:34:02;1026.51;;;8.07;62.77
64230;BME280;50547;49.498;0.092;2023-01-29T02:36:40;1026.47;;;8.32;62.24
64230;BME280;50547;49.498;0.092;2023-01-29T02:39:16;1026.49;;;8.51;61.95
64230;BME280;50547;49.498;0.092;2023-01-29T02:41:55;1026.49;;;8.67;61.76
64230;BME280;50547;49.498;0.092;2023-01-29T02:44:34;1026.49;;;8.88;61.50
64230;BME280;50547;49.498;0.092;2023-01-29T02:47:11;1026.45;;;8.84;61.75
64230;BME280;50547;49.498;0.092;2023-01-29T02:49:47;1026.45;;;8.83;61.90
64230;BME280;50547;49.498;0.092;2023-01-29T02:52:20;1026.51;;;8.88;61.92
64230;BME280;50547;49.498;0.092;2023-01-29T02:54:54;1026.51;;;8.73;62.41
64230;BME280;50547;49.498;0.092;2023-01-29T02:57:28;1026.53;;;8.57;61.84
64230;BME280;50547;49.498;0.092;2023-01-29T03:00:02;1026.57;;;8.37;62.48
64230;BME280;50547;49.498;0.092;2023-01-29T03:02:38;1026.55;;;8.18;62.72
64230;BME280;50547;49.498;0.092;2023-01-29T03:05:13;1026.47;;;8.16;62.42
64230;BME280;50547;49.498;0.092;2023-01-29T03:07:48;1026.45;;;7.98;62.16
64230;BME280;50547;49.498;0.092;2023-01-29T03:10:21;1026.43;;;8.08;61.97
64230;BME280;50547;49.498;0.092;2023-01-29T03:12:54;1026.43;;;8.10;61.86
64230;BME280;50547;49.498;0.092;2023-01-29T03:15:30;1026.37;;;7.86;62.20
64230;BME280;50547;49.498;0.092;2023-01-29T03:18:04;1026.37;;;7.73;62.51
64230;BME280;50547;49.498;0.092;2023-01-29T03:20:40;1026.37;;;7.63;62.28
64230;BME280;50547;49.498;0.092;2023-01-29T03:23:14;1026.33;;;7.93;61.65
64230;BME280;50547;49.498;0.092;2023-01-29T03:25:45;1026.31;;;8.08;61.40
64230;BME280;50547;49.498;0.092;2023-01-29T03:28:16;1026.33;;;8.17;61.25
64230;BME280;50547;49.498;0.092;2023-01-29T03:30:49;1026.33;;;8.10;61.83
64230;BME280;50547;49.498;0.092;2023-01-29T03:33:23;1026.33;;;7.99;62.10
64230;BME280;50547;49.498;0.092;2023-01-29T03:35:57;1026.29;;;7.94;61.95
64230;BME280;50547;49.498;0.092;2023-01-29T03:38:28;1026.29;;;7.69;62.18
64230;BME280;50547;49.498;0.092;2023-01-29T03:41:02;1026.31;;;7.63;62.23
64230;BME280;50547;49.498;0.092;2023-01-29T03:43:37;1026.29;;;7.59;62.21
64230;BME280;50547;49.498;0.092;2023-01-29T03:46:10;1026.37;;;7.82;61.93
64230;BME280;50547;49.498;0.092;2023-01-29T03:48:48;1026.39;;;7.91;61.09
64230;BME280;50547;49.498;0.092;2023-01-29T03:51:25;1026.35;;;8.21;60.87
64230;BME280;50547;49.498;0.092;2023-01-29T03:54:02;1026.29;;;8.24;60.82
64230;BME280;50547;49.498;0.092;2023-01-29T03:56:42;1026.23;;;8.39;60.74
64230;BME280;50547;49.498;0.092;2023-01-29T03:59:20;1026.27;;;8.56;60.60
64230;BME280;50547;49.498;0.092;2023-01-29T04:01:53;1026.33;;;8.53;59.91
64230;BME280;50547;49.498;0.092;2023-01-29T04:04:27;1026.33;;;8.44;60.71
64230;BME280;50547;49.498;0.092;2023-01-29T04:07:03;1026.33;;;8.28;61.24
64230;BME280;50547;49.498;0.092;2023-01-29T04:09:38;1026.37;;;8.42;61.18
64230;BME280;50547;49.498;0.092;2023-01-29T04:12:10;1026.39;;;8.39;60.65
64230;BME280;50547;49.498;0.092;2023-01-29T04:14:39;1026.35;;;8.39;60.87
64230;BME280;50547;49.498;0.092;2023-01-29T04:17:12;1026.33;;;8.50;61.04
64230;BME280;50547;49.498;0.092;2023-01-29T04:19:43;1026.33;;;8.69;60.91
64230;BME280;50547;49.498;0.092;2023-01-29T04:22:16;1026.33;;;8.77;60.32
64230;BME280;50547;49.498;0.092;2023-01-29T04:24:47;1026.31;;;8.69;60.29
64230;BME280;50547;49.498;0.092;2023-01-29T04:27:25;1026.25;;;8.64;60.85
64230;BME280;50547;49.498;0.092;2023-01-29T04:30:05;1026.25;;;8.69;60.87
64230;BME280;50547;49.498;0.092;2023-01-29T04:32:48;1026.25;;;8.76;60.46
64230;BME280;50547;49.498;0.092;2023-01-29T04:35:28;1026.23;;;8.61;61.17
64230;BME280;50547;49.498;0.092;2023-01-29T04:38:07;1026.19;;;8.67;61.15
64230;BME280;50547;49.498;0.092;2023-01-29T04:40:48;1026.12;;;8.80;60.82
64230;BME280;50547;49.498;0.092;2023-01-29T04:43:24;1026.14;;;8.91;60.31
64230;BME280;50547;49.498;0.092;2023-01-29T04:46:05;1026.15;;;9.00;59.96
64230;BME280;50547;49.498;0.092;2023-01-29T04:48:45;1026.15;;;8.85;60.65
64230;BME280;50547;49.498;0.092;2023-01-29T04:51:23;1026.12;;;9.09;60.73
64230;BME280;50547;49.498;0.092;2023-01-29T04:53:58;1026.14;;;9.23;60.71
64230;BME280;50547;49.498;0.092;2023-01-29T04:56:34;1026.17;;;9.41;60.43
64230;BME280;50547;49.498;0.092;2023-01-29T04:59:10;1026.17;;;9.45;60.54
64230;BME280;50547;49.498;0.092;2023-01-29T05:01:42;1026.19;;;9.42;60.60
64230;BME280;50547;49.498;0.092;2023-01-29T05:04:14;1026.17;;;9.45;60.67
64230;BME280;50547;49.498;0.092;2023-01-29T05:06:44;1026.19;;;9.42;60.07
64230;BME280;50547;49.498;0.092;2023-01-29T05:09:15;1026.17;;;9.06;60.98
64230;BME280;50547;49.498;0.092;2023-01-29T05:11:46;1026.21;;;9.19;60.55
64230;BME280;50547;49.498;0.092;2023-01-29T05:14:18;1026.17;;;9.39;59.86
64230;BME280;50547;49.498;0.092;2023-01-29T05:16:51;1026.15;;;9.50;59.40
64230;BME280;50547;49.498;0.092;2023-01-29T05:19:21;1026.15;;;9.58;59.67
64230;BME280;50547;49.498;0.092;2023-01-29T05:21:50;1026.17;;;9.62;59.96
64230;BME280;50547;49.498;0.092;2023-01-29T05:24:21;1026.12;;;9.54;60.30
64230;BME280;50547;49.498;0.092;2023-01-29T05:26:52;1026.12;;;9.54;60.51
64230;BME280;50547;49.498;0.092;2023-01-29T05:29:22;1026.17;;;9.42;60.53
64230;BME280;50547;49.498;0.092;2023-01-29T05:31:51;1026.15;;;9.34;60.77
64230;BME280;50547;49.498;0.092;2023-01-29T05:34:21;1026.12;;;9.21;61.05
64230;BME280;50547;49.498;0.092;2023-01-29T05:36:50;1026.14;;;9.19;61.10
64230;BME280;50547;49.498;0.092;2023-01-29T05:39:19;1025.99;;;9.34;60.70
64230;BME280;50547;49.498;0.092;2023-01-29T05:41:50;1026.12;;;9.40;60.66
64230;BME280;50547;49.498;0.092;2023-01-29T05:44:19;1025.99;;;9.43;60.59
64230;BME280;50547;49.498;0.092;2023-01-29T05:46:49;1025.99;;;9.46;60.77
64230;BME280;50547;49.498;0.092;2023-01-29T05:49:18;1025.93;;;9.56;60.55
64230;BME280;50547;49.498;0.092;2023-01-29T05:51:48;1025.95;;;9.50;60.03
64230;BME280;50547;49.498;0.092;2023-01-29T05:54:17;1025.93;;;9.17;61.49
64230;BME280;50547;49.498;0.092;2023-01-29T05:56:46;1025.89;;;9.14;62.00
64230;BME280;50547;49.498;0.092;2023-01-29T05:59:15;1025.91;;;9.30;61.58
64230;BME280;50547;49.498;0.092;2023-01-29T06:01:44;1025.89;;;9.26;60.82
64230;BME280;50547;49.498;0.092;2023-01-29T06:04:14;1025.87;;;9.06;61.80
64230;BME280;50547;49.498;0.092;2023-01-29T06:06:43;1025.87;;;9.08;61.77
64230;BME280;50547;49.498;0.092;2023-01-29T06:09:12;1025.83;;;9.07;62.16
64230;BME280;50547;49.498;0.092;2023-01-29T06:11:41;1025.83;;;9.22;61.84
64230;BME280;50547;49.498;0.092;2023-01-29T06:14:10;1025.81;;;9.19;61.75
64230;BME280;50547;49.498;0.092;2023-01-29T06:16:39;1025.83;;;9.11;62.42
64230;BME280;50547;49.498;0.092;2023-01-29T06:19:08;1025.85;;;9.01;62.43
64230;BME280;50547;49.498;0.092;2023-01-29T06:21:38;1025.85;;;8.68;63.46
64230;BME280;50547;49.498;0.092;2023-01-29T06:24:07;1025.87;;;8.50;64.09
64230;BME280;50547;49.498;0.092;2023-01-29T06:26:37;1025.85;;;8.63;63.05
64230;BME280;50547;49.498;0.092;2023-01-29T06:29:06;1025.81;;;8.67;62.85
64230;BME280;50547;49.498;0.092;2023-01-29T06:31:35;1025.85;;;8.72;63.19
64230;BME280;50547;49.498;0.092;2023-01-29T06:34:04;1025.87;;;8.67;63.20
64230;BME280;50547;49.498;0.092;2023-01-29T06:36:34;1025.83;;;8.69;63.26
64230;BME280;50547;49.498;0.092;2023-01-29T06:39:03;1025.85;;;8.76;63.34
64230;BME280;50547;49.498;0.092;2023-01-29T06:41:33;1025.77;;;9.09;62.83
64230;BME280;50547;49.498;0.092;2023-01-29T06:44:03;1025.75;;;9.22;62.69
64230;BME280;50547;49.498;0.092;2023-01-29T06:46:32;1025.77;;;9.39;62.54
64230;BME280;50547;49.498;0.092;2023-01-29T06:49:01;1025.73;;;9.45;62.46
64230;BME280;50547;49.498;0.092;2023-01-29T06:51:30;1025.73;;;9.55;62.28
64230;BME280;50547;49.498;0.092;2023-01-29T06:53:59;1025.73;;;9.55;62.68
64230;BME280;50547;49.498;0.092;2023-01-29T06:56:28;1025.71;;;9.49;63.92
64230;BME280;50547;49.498;0.092;2023-01-29T06:58:57;1025.69;;;9.48;64.59
64230;BME280;50547;49.498;0.092;2023-01-29T07:01:27;1025.69;;;9.43;65.44
64230;BME280;50547;49.498;0.092;2023-01-29T07:08:38;1025.71;;;9.15;66.28
64230;BME280;50547;49.498;0.092;2023-01-29T07:11:07;1025.69;;;9.02;67.06
64230;BME280;50547;49.498;0.092;2023-01-29T07:13:37;1025.66;;;8.96;67.33
